Time;durP1;ratioP1;P1;durP2;ratioP2;P2;SDS_P1;SDS_P2;PMS_P1;PMS_P2;Temp;Humidity;BMP_temperature;BMP_pressure;BME280_temperature;BME280_humidity;BME280_pressure;Samples;Min_cycle;Max_cycle;Signal;HPM_P1;HPM_P2
2022/11/18 00:00:46;;;;;;;30.67;17.60;;;26.40;99.90;;;;;;5097645;28;20016;-64
2022/11/18 00:03:12;;;;;;;23.05;16.83;;;26.30;99.90;;;;;;5097291;28;20039;-65
2022/11/18 00:05:39;;;;;;;24.38;16.50;;;26.40;99.90;;;;;;5097300;28;20024;-65
2022/11/18 00:08:05;;;;;;;21.15;16.30;;;26.50;99.90;;;;;;5097151;28;20031;-65
2022/11/18 00:10:32;;;;;;;22.23;15.65;;;26.50;99.90;;;;;;5097132;28;20025;-65
2022/11/18 00:15:27;;;;;;;17.05;15.15;;;26.40;99.90;;;;;;5097197;28;20476;-63
2022/11/18 00:17:54;;;;;;;19.35;15.18;;;26.40;99.90;;;;;;5096946;28;20028;-64
2022/11/18 00:20:20;;;;;;;23.35;16.65;;;26.50;99.90;;;;;;5096939;28;20358;-65
2022/11/18 00:22:47;;;;;;;23.42;18.27;;;26.50;99.90;;;;;;5096765;28;20042;-65
2022/11/18 00:25:14;;;;;;;27.15;19.80;;;26.50;99.90;;;;;;5097049;28;20069;-65
2022/11/18 00:27:40;;;;;;;30.00;20.55;;;26.50;99.90;;;;;;5096763;28;20427;-63
2022/11/18 00:30:07;;;;;;;28.98;20.38;;;26.60;99.90;;;;;;5096540;28;20427;-63
2022/11/18 00:32:34;;;;;;;34.97;22.83;;;26.60;99.90;;;;;;5096482;28;20059;-58
2022/11/18 00:35:00;;;;;;;31.70;22.77;;;26.70;99.90;;;;;;5096744;28;20020;-59
2022/11/18 00:37:27;;;;;;;31.38;22.00;;;26.70;99.90;;;;;;5096388;28;20021;-58
2022/11/18 00:39:53;;;;;;;42.95;33.60;;;26.70;99.90;;;;;;5096493;28;20043;-59
2022/11/18 00:44:49;;;;;;;346.83;265.33;;;26.90;99.90;;;;;;5096337;28;20115;-57
2022/11/18 00:47:15;;;;;;;30.60;20.83;;;26.90;99.90;;;;;;5097008;28;20198;-59
2022/11/18 00:49:42;;;;;;;23.83;17.08;;;26.90;99.90;;;;;;5096608;28;20102;-58
2022/11/18 00:52:08;;;;;;;68.10;50.95;;;26.90;99.90;;;;;;5089587;28;20392;-59
2022/11/18 00:54:35;;;;;;;57.42;38.63;;;26.90;99.90;;;;;;5079332;28;20024;-58
2022/11/18 00:57:03;;;;;;;44.60;29.80;;;27.00;99.90;;;;;;5076081;28;20479;-58
2022/11/18 00:59:29;;;;;;;24.67;17.63;;;27.00;99.90;;;;;;5076052;28;20035;-57
2022/11/18 01:01:56;;;;;;;68.88;57.67;;;27.00;99.90;;;;;;5075930;28;20123;-56
2022/11/18 01:04:22;;;;;;;169.20;128.82;;;27.00;99.90;;;;;;5075937;28;20034;-58
2022/11/18 01:06:49;;;;;;;109.93;75.25;;;27.00;99.90;;;;;;5076466;28;20032;-58
2022/11/18 01:09:15;;;;;;;94.60;72.32;;;27.10;99.90;;;;;;5076689;28;20028;-59
2022/11/18 01:14:11;;;;;;;49.10;40.90;;;27.20;99.90;;;;;;5076436;28;20100;-61
2022/11/18 01:16:37;;;;;;;47.13;39.80;;;27.10;99.90;;;;;;5076391;28;20081;-58
2022/11/18 01:19:04;;;;;;;38.22;31.15;;;27.10;99.90;;;;;;5076496;28;20493;-59
2022/11/18 01:21:30;;;;;;;43.85;31.48;;;27.10;99.90;;;;;;5076001;28;20028;-57
2022/11/18 01:23:57;;;;;;;39.03;30.52;;;27.10;99.90;;;;;;5076361;28;20028;-59
2022/11/18 01:26:23;;;;;;;34.72;29.90;;;27.20;99.90;;;;;;5076437;28;20029;-60
2022/11/18 01:28:53;;;;;;;36.35;31.70;;;27.20;99.90;;;;;;5076001;28;20111;-58
2022/11/18 01:31:20;;;;;;;43.88;34.55;;;27.30;99.90;;;;;;5076194;28;20398;-59
2022/11/18 01:33:46;;;;;;;43.17;33.55;;;27.30;99.90;;;;;;5076062;28;20123;-59
2022/11/18 01:36:26;;;;;;;49.08;33.13;;;27.30;99.90;;;;;;5076039;28;20029;-56
2022/11/18 01:38:54;;;;;;;34.63;29.42;;;27.40;99.90;;;;;;5076093;28;20017;-58
2022/11/18 01:41:24;;;;;;;44.55;26.67;;;27.40;99.90;;;;;;5076564;28;20146;-59
2022/11/18 01:43:58;;;;;;;30.92;21.80;;;27.50;99.90;;;;;;5076302;28;20017;-57
2022/11/18 01:46:27;;;;;;;37.53;22.35;;;27.40;99.90;;;;;;5075726;28;20024;-58
2022/11/18 01:49:00;;;;;;;28.58;20.83;;;27.50;99.90;;;;;;5075451;28;20027;-60
2022/11/18 01:51:31;;;;;;;24.83;19.45;;;27.60;99.90;;;;;;5074896;28;20029;-62
2022/11/18 01:54:05;;;;;;;32.38;18.92;;;27.60;99.90;;;;;;5074992;28;20021;-62
2022/11/18 01:56:39;;;;;;;34.00;19.17;;;27.60;99.90;;;;;;5074855;28;20029;-60
2022/11/18 01:59:11;;;;;;;34.53;19.63;;;27.60;99.90;;;;;;5074922;28;20025;-58
2022/11/18 02:01:37;;;;;;;21.63;12.40;;;27.60;99.90;;;;;;5074951;28;20017;-60
2022/11/18 02:04:04;;;;;;;17.55;10.13;;;27.60;99.90;;;;;;5074729;28;20029;-59
2022/11/18 02:06:32;;;;;;;14.07;9.48;;;27.70;99.90;;;;;;5074705;28;20531;-58
2022/11/18 02:08:59;;;;;;;13.63;8.05;;;27.70;99.90;;;;;;5074426;28;20393;-57
2022/11/18 02:11:57;;;;;;;16.83;9.27;;;27.70;99.90;;;;;;5074358;28;20028;-60
2022/11/18 02:14:13;;;;;;;16.98;9.07;;;27.80;99.90;;;;;;5072496;28;20037;-59
2022/11/18 02:16:42;;;;;;;17.83;10.30;;;27.80;99.90;;;;;;5073847;28;20107;-59
2022/11/18 02:19:32;;;;;;;19.83;10.90;;;27.90;99.90;;;;;;5074345;28;20020;-58
2022/11/18 02:22:09;;;;;;;22.77;11.20;;;27.90;99.90;;;;;;5074267;28;20055;-58
2022/11/18 02:24:41;;;;;;;18.90;10.20;;;28.00;99.90;;;;;;5074167;28;20050;-57
2022/11/18 02:27:09;;;;;;;;;;;28.20;99.90;;;;;;5074533;28;20029;-58
2022/11/18 02:29:51;;;;;;;12.98;8.93;;;28.30;99.90;;;;;;5074109;28;20006;-59
2022/11/18 02:32:25;;;;;;;18.15;8.25;;;28.30;99.90;;;;;;5074100;28;20052;-58
2022/11/18 02:35:17;;;;;;;15.20;8.00;;;28.30;99.90;;;;;;5074014;28;20052;-59
2022/11/18 02:37:58;;;;;;;17.98;9.18;;;28.50;99.90;;;;;;5069695;28;20032;-58
2022/11/18 02:40:31;;;;;;;18.35;11.48;;;28.50;99.90;;;;;;5073741;28;20056;-57
2022/11/18 02:43:14;;;;;;;19.60;11.18;;;28.60;99.90;;;;;;5073931;28;20473;-60
2022/11/18 02:45:46;;;;;;;22.15;9.75;;;28.60;99.90;;;;;;5074107;28;20487;-59
2022/11/18 02:48:14;;;;;;;18.80;10.80;;;28.50;99.90;;;;;;5073936;28;20027;-60
2022/11/18 02:50:44;;;;;;;12.13;8.63;;;28.50;99.90;;;;;;5073697;28;20370;-58
2022/11/18 02:53:14;;;;;;;15.77;9.48;;;28.50;99.90;;;;;;5073505;28;20025;-59
2022/11/18 02:55:43;;;;;;;10.27;6.80;;;28.70;99.90;;;;;;5073691;28;20096;-59
2022/11/18 02:58:11;;;;;;;7.18;4.63;;;28.70;99.90;;;;;;5073679;28;20150;-61
2022/11/18 03:00:38;;;;;;;13.45;5.40;;;28.70;99.90;;;;;;5073508;28;20362;-62
2022/11/18 03:03:09;;;;;;;14.68;8.27;;;28.70;99.90;;;;;;5073645;28;20493;-60
2022/11/18 03:05:42;;;;;;;;;;;28.70;99.90;;;;;;5074033;28;20082;-57
2022/11/18 03:08:14;;;;;;;10.40;4.70;;;28.70;99.90;;;;;;5073532;28;19911;-59
2022/11/18 03:10:45;;;;;;;;;;;28.70;99.90;;;;;;5073910;28;20248;-57
2022/11/18 03:13:16;;;;;;;8.00;5.85;;;28.80;99.90;;;;;;5073204;28;19915;-61
2022/11/18 03:16:03;;;;;;;19.05;11.30;;;28.70;99.90;;;;;;5073462;28;20023;-60
2022/11/18 03:18:54;;;;;;;30.25;18.83;;;28.80;99.90;;;;;;5070511;28;20078;-57
2022/11/18 03:21:26;;;;;;;25.50;16.73;;;28.80;99.90;;;;;;5073478;28;20028;-60
2022/11/18 03:23:53;;;;;;;13.93;10.00;;;28.80;99.90;;;;;;5073642;28;20553;-58
2022/11/18 03:26:28;;;;;;;16.45;8.45;;;28.90;99.90;;;;;;5073259;28;20020;-59
2022/11/18 03:29:03;;;;;;;30.02;15.43;;;28.90;99.90;;;;;;5073006;28;20056;-60
2022/11/18 03:31:54;;;;;;;21.85;13.75;;;29.00;99.90;;;;;;5073885;28;20052;-59
2022/11/18 03:34:35;;;;;;;40.85;20.95;;;29.20;99.90;;;;;;5083285;28;20397;-60
2022/11/18 03:37:05;;;;;;;17.27;10.43;;;29.10;99.90;;;;;;5081666;28;20029;-58
2022/11/18 03:39:36;;;;;;;15.57;10.85;;;29.10;99.90;;;;;;5079985;28;20016;-59
2022/11/18 03:42:22;;;;;;;18.03;10.67;;;29.00;99.90;;;;;;5092394;28;20028;-60
2022/11/18 03:44:54;;;;;;;15.23;10.20;;;29.10;99.90;;;;;;5090027;28;20058;-60
2022/11/18 03:47:40;;;;;;;;;;;29.10;99.90;;;;;;5092763;28;20100;-60
2022/11/18 03:50:20;;;;;;;23.67;13.35;;;29.20;99.90;;;;;;5088865;28;19912;-60
2022/11/18 03:52:49;;;;;;;15.82;9.60;;;29.20;99.90;;;;;;5093107;28;20027;-62
2022/11/18 03:55:23;;;;;;;12.52;8.95;;;29.30;99.90;;;;;;5093048;28;20020;-62
2022/11/18 03:58:06;;;;;;;17.35;10.00;;;29.20;99.90;;;;;;5093198;28;20610;-60
2022/11/18 04:00:38;;;;;;;17.52;11.02;;;29.30;99.90;;;;;;5093079;28;20043;-58
2022/11/18 04:03:05;;;;;;;20.23;10.95;;;29.30;99.90;;;;;;5093186;28;20421;-59
2022/11/18 04:05:38;;;;;;;15.02;8.93;;;29.40;99.90;;;;;;5093177;28;20034;-59
2022/11/18 04:08:09;;;;;;;12.02;8.02;;;29.40;99.90;;;;;;5093215;28;20145;-62
2022/11/18 04:10:44;;;;;;;23.70;8.60;;;29.40;99.90;;;;;;5092870;28;20545;-57
2022/11/18 04:13:25;;;;;;;10.80;7.43;;;29.50;99.90;;;;;;5092658;28;20024;-59
2022/11/18 04:15:53;;;;;;;14.55;8.50;;;29.50;99.90;;;;;;5092883;28;20031;-58
2022/11/18 04:18:20;;;;;;;12.15;8.05;;;29.50;99.90;;;;;;5085772;28;20376;-58
2022/11/18 04:20:47;;;;;;;9.63;7.03;;;29.60;99.90;;;;;;5091742;28;20435;-59
2022/11/18 04:23:13;;;;;;;13.50;7.43;;;29.60;99.90;;;;;;5091972;28;20047;-61
2022/11/18 04:25:40;;;;;;;10.40;6.75;;;29.60;99.90;;;;;;5091748;28;20028;-62
2022/11/18 04:28:06;;;;;;;13.32;7.90;;;29.70;99.90;;;;;;5092000;28;20174;-60
2022/11/18 04:30:34;;;;;;;12.45;7.28;;;29.70;99.90;;;;;;5091855;28;20436;-61
2022/11/18 04:33:00;;;;;;;17.88;7.03;;;29.70;99.90;;;;;;5091365;28;20051;-60
2022/11/18 04:35:28;;;;;;;12.95;6.63;;;29.90;99.90;;;;;;5091827;28;20062;-60
2022/11/18 04:37:54;;;;;;;11.77;6.65;;;29.80;99.90;;;;;;5091739;28;20020;-60
2022/11/18 04:40:21;;;;;;;11.13;6.78;;;29.90;99.90;;;;;;5094350;28;20013;-62
2022/11/18 04:42:47;;;;;;;15.35;6.20;;;29.90;99.90;;;;;;5094251;28;20028;-59
2022/11/18 04:45:14;;;;;;;18.20;8.75;;;29.90;99.90;;;;;;5092202;28;20441;-59
2022/11/18 04:47:40;;;;;;;14.25;7.20;;;29.90;99.90;;;;;;5095453;28;20020;-67
2022/11/18 04:50:07;;;;;;;11.30;6.82;;;30.00;99.90;;;;;;5095741;28;20161;-67
2022/11/18 04:52:34;;;;;;;14.48;6.75;;;29.90;99.90;;;;;;5095607;28;20035;-67
2022/11/18 04:55:00;;;;;;;13.60;6.15;;;29.90;99.90;;;;;;5095575;28;20020;-66
2022/11/18 04:57:27;;;;;;;10.00;5.80;;;30.00;99.90;;;;;;5095789;28;20035;-66
2022/11/18 04:59:53;;;;;;;11.23;6.55;;;30.00;99.90;;;;;;5095536;28;20469;-67
2022/11/18 05:02:20;;;;;;;16.70;6.40;;;30.00;99.90;;;;;;5095170;28;20408;-66
2022/11/18 05:04:46;;;;;;;17.17;7.75;;;30.00;99.90;;;;;;5095318;28;20027;-67
2022/11/18 05:07:14;;;;;;;10.82;6.18;;;30.00;99.90;;;;;;5095295;28;20028;-67
2022/11/18 05:09:40;;;;;;;13.15;6.05;;;30.00;99.90;;;;;;5092227;28;20076;-67
2022/11/18 05:14:41;;;;;;;13.30;5.07;;;30.00;99.90;;;;;;5078141;28;20377;-67
2022/11/18 05:17:08;;;;;;;8.65;5.07;;;30.00;99.90;;;;;;5075590;28;20047;-67
2022/11/18 05:19:40;;;;;;;12.52;5.38;;;30.00;99.90;;;;;;5089905;28;20065;-67
2022/11/18 05:22:07;;;;;;;22.20;5.03;;;30.00;99.90;;;;;;5095131;28;20059;-66
2022/11/18 05:24:33;;;;;;;8.50;5.45;;;30.00;99.90;;;;;;5094944;28;20260;-65
2022/11/18 05:27:00;;;;;;;13.07;6.05;;;30.00;99.90;;;;;;5095446;28;20116;-67
2022/11/18 05:29:26;;;;;;;12.00;6.75;;;30.00;99.90;;;;;;5095822;28;20025;-67
2022/11/18 05:31:53;;;;;;;11.25;5.43;;;30.00;99.90;;;;;;5095263;28;20048;-67
2022/11/18 05:34:19;;;;;;;8.60;5.18;;;30.00;99.90;;;;;;5095399;28;20024;-66
2022/11/18 05:36:46;;;;;;;15.43;5.47;;;30.00;99.90;;;;;;5095231;28;20024;-67
2022/11/18 05:39:12;;;;;;;9.07;4.38;;;30.10;99.90;;;;;;5095422;28;20016;-67
2022/11/18 05:44:08;;;;;;;15.48;5.22;;;30.00;99.90;;;;;;5095618;28;20035;-65
2022/11/18 05:46:35;;;;;;;12.05;5.43;;;30.00;99.90;;;;;;5095369;28;20472;-68
2022/11/18 05:49:01;;;;;;;8.50;5.07;;;30.10;99.90;;;;;;5095355;28;20089;-67
2022/11/18 05:51:28;;;;;;;4.95;4.03;;;30.10;99.90;;;;;;5095059;28;20483;-67
2022/11/18 05:53:55;;;;;;;8.13;4.25;;;30.20;99.90;;;;;;5095142;28;20074;-68
2022/11/18 05:56:27;;;;;;;7.18;3.97;;;30.20;99.90;;;;;;5087906;28;20418;-67
2022/11/18 05:58:54;;;;;;;6.90;3.33;;;30.20;99.90;;;;;;5074668;28;20028;-67
2022/11/18 06:01:28;;;;;;;7.25;3.33;;;30.30;99.90;;;;;;5074685;28;20023;-67
2022/11/18 06:03:56;;;;;;;9.55;4.60;;;30.30;99.90;;;;;;5074654;28;20020;-66
2022/11/18 06:06:23;;;;;;;9.70;4.20;;;30.30;99.90;;;;;;5074614;28;20054;-71
2022/11/18 06:09:09;;;;;;;8.00;3.97;;;30.40;99.90;;;;;;5074428;28;20070;-67
2022/11/18 06:11:42;;;;;;;7.55;4.13;;;30.50;99.90;;;;;;5075029;28;20505;-67
2022/11/18 06:14:26;;;;;;;17.08;7.32;;;30.50;99.90;;;;;;5074306;28;20393;-66
2022/11/18 06:16:59;;;;;;;12.40;6.20;;;30.60;99.90;;;;;;5074689;28;20533;-66
2022/11/18 06:19:26;;;;;;;14.35;7.15;;;30.70;99.90;;;;;;5074226;28;20430;-68
2022/11/18 06:21:53;;;;;;;9.63;4.97;;;30.70;99.90;;;;;;5074173;28;20112;-67
2022/11/18 06:24:20;;;;;;;17.83;5.93;;;30.80;99.90;;;;;;5081063;28;20094;-68
2022/11/18 06:26:47;;;;;;;13.57;6.20;;;30.90;99.90;;;;;;5079157;28;20078;-68
2022/11/18 06:29:17;;;;;;;19.08;7.68;;;30.90;99.90;;;;;;5079356;28;20127;-67
2022/11/18 06:31:43;;;;;;;14.57;6.63;;;30.90;99.90;;;;;;5094458;28;20040;-67
2022/11/18 06:34:10;;;;;;;14.65;5.88;;;31.00;99.90;;;;;;5094366;28;20469;-67
2022/11/18 06:36:36;;;;;;;9.27;3.38;;;31.00;99.90;;;;;;5094707;28;20024;-67
2022/11/18 06:39:04;;;;;;;10.70;4.47;;;31.00;99.90;;;;;;5094631;28;20051;-67
2022/11/18 06:41:31;;;;;;;10.52;5.00;;;31.20;99.90;;;;;;5094066;28;20024;-68
2022/11/18 06:43:58;;;;;;;10.77;4.88;;;31.10;99.90;;;;;;5094131;28;20016;-67
2022/11/18 06:48:54;;;;;;;18.60;10.55;;;31.20;99.90;;;;;;5094091;28;20031;-66
2022/11/18 06:51:21;;;;;;;10.38;6.80;;;31.20;99.90;;;;;;5094207;28;20071;-65
2022/11/18 06:53:48;;;;;;;6.35;3.88;;;31.20;99.90;;;;;;5094607;28;20024;-66
2022/11/18 06:56:16;;;;;;;7.03;3.33;;;31.30;99.90;;;;;;5092614;28;20023;-65
2022/11/18 06:58:43;;;;;;;6.18;2.83;;;31.50;99.90;;;;;;5092793;28;20411;-66
2022/11/18 07:01:12;;;;;;;35.05;4.28;;;31.50;99.90;;;;;;5092404;28;20099;-60
2022/11/18 07:03:42;;;;;;;7.80;3.08;;;31.50;99.90;;;;;;5091820;28;20024;-60
2022/11/18 07:06:10;;;;;;;18.35;10.02;;;31.50;99.90;;;;;;5092251;28;20032;-60
2022/11/18 07:08:38;;;;;;;12.93;5.13;;;31.50;99.90;;;;;;5092307;28;20027;-60
2022/11/18 07:11:06;;;;;;;100.35;65.65;;;31.70;99.90;;;;;;5092153;28;20028;-62
2022/11/18 07:13:34;;;;;;;7.93;3.40;;;31.80;99.90;;;;;;5092086;28;20107;-61
2022/11/18 07:16:04;;;;;;;5.50;3.00;;;31.80;99.90;;;;;;5092248;28;20046;-58
2022/11/18 07:18:33;;;;;;;6.63;4.38;;;31.80;99.90;;;;;;5092041;28;20065;-60
2022/11/18 07:21:04;;;;;;;4.22;2.60;;;31.80;99.90;;;;;;5092170;28;20012;-60
2022/11/18 07:23:32;;;;;;;7.97;4.87;;;31.70;99.90;;;;;;5090671;28;20380;-59
2022/11/18 07:25:59;;;;;;;18.45;8.65;;;31.60;99.90;;;;;;5092062;28;20253;-61
2022/11/18 07:28:26;;;;;;;11.93;5.65;;;31.50;99.90;;;;;;5092063;28;20023;-62
2022/11/18 07:30:59;;;;;;;8.90;4.50;;;31.50;99.90;;;;;;5091809;28;20099;-60
2022/11/18 07:33:26;;;;;;;10.00;4.50;;;31.50;99.90;;;;;;5091989;28;20031;-61
2022/11/18 07:35:52;;;;;;;6.50;3.80;;;31.50;99.90;;;;;;5091969;28;20013;-61
2022/11/18 07:38:19;;;;;;;13.40;6.05;;;31.60;99.90;;;;;;5091824;28;20013;-63
2022/11/18 07:40:45;;;;;;;6.78;4.07;;;31.70;99.90;;;;;;5091897;28;20012;-65
2022/11/18 07:43:11;;;;;;;7.18;4.10;;;31.80;99.90;;;;;;5087677;28;20064;-66
2022/11/18 07:45:38;;;;;;;8.88;4.82;;;31.90;99.90;;;;;;5073179;28;20031;-66
2022/11/18 07:48:05;;;;;;;9.27;5.55;;;32.00;99.90;;;;;;5082088;28;20109;-65
2022/11/18 07:50:31;;;;;;;7.50;3.45;;;32.00;99.90;;;;;;5073196;28;20021;-66
2022/11/18 07:52:58;;;;;;;7.63;4.22;;;32.10;99.90;;;;;;5072909;28;20483;-65
2022/11/18 07:55:24;;;;;;;8.88;3.97;;;32.00;99.90;;;;;;5073070;28;20039;-64
2022/11/18 07:57:51;;;;;;;8.63;3.63;;;32.00;99.90;;;;;;5072980;28;20477;-64
2022/11/18 08:00:18;;;;;;;10.68;4.00;;;31.90;99.90;;;;;;5072982;28;20462;-63
2022/11/18 08:02:48;;;;;;;356.08;262.80;;;31.80;99.90;;;;;;5072881;28;20036;-65
2022/11/18 08:05:15;;;;;;;14.48;7.85;;;31.80;99.90;;;;;;5073025;28;20105;-65
2022/11/18 08:07:41;;;;;;;8.13;5.45;;;31.90;99.90;;;;;;5072855;28;20024;-62
2022/11/18 08:10:08;;;;;;;10.90;4.90;;;31.90;99.90;;;;;;5072940;28;20032;-67
2022/11/18 08:12:34;;;;;;;12.55;6.28;;;31.80;99.90;;;;;;5072683;28;20486;-70
2022/11/18 08:15:01;;;;;;;16.98;8.32;;;31.80;99.90;;;;;;5075000;28;20020;-66
2022/11/18 08:17:28;;;;;;;15.10;8.98;;;31.80;99.90;;;;;;5076898;28;20094;-65
2022/11/18 08:19:54;;;;;;;17.70;6.80;;;31.90;99.90;;;;;;5076756;28;20032;-65
2022/11/18 08:22:21;;;;;;;16.25;7.68;;;31.90;99.90;;;;;;5076512;28;20052;-70
2022/11/18 08:24:47;;;;;;;12.68;7.63;;;31.90;99.90;;;;;;5076398;28;20048;-69
2022/11/18 08:27:14;;;;;;;15.63;10.60;;;31.90;99.90;;;;;;5076444;28;20035;-65
2022/11/18 08:29:40;;;;;;;21.20;9.98;;;32.00;99.90;;;;;;5076475;28;20032;-70
2022/11/18 08:32:07;;;;;;;25.25;12.73;;;32.00;99.90;;;;;;5076021;28;20040;-70
2022/11/18 08:34:34;;;;;;;16.33;9.27;;;32.00;99.90;;;;;;5076491;28;20025;-68
2022/11/18 08:37:00;;;;;;;11.65;7.13;;;32.00;99.90;;;;;;5087776;28;20444;-68
2022/11/18 08:39:26;;;;;;;11.73;6.85;;;32.00;99.90;;;;;;5096573;28;20027;-68
2022/11/18 08:41:53;;;;;;;11.25;6.88;;;32.00;99.90;;;;;;5096542;28;20031;-69
2022/11/18 08:44:19;;;;;;;15.13;7.10;;;32.00;99.90;;;;;;5096387;28;20028;-67
2022/11/18 08:46:46;;;;;;;10.38;7.93;;;31.90;99.90;;;;;;5096215;28;20480;-69
2022/11/18 08:49:13;;;;;;;17.42;8.10;;;31.90;99.90;;;;;;5096318;28;20036;-68
2022/11/18 08:51:40;;;;;;;12.93;8.00;;;31.90;99.90;;;;;;5096247;28;20032;-70
2022/11/18 08:54:06;;;;;;;14.20;7.60;;;31.90;99.90;;;;;;5095859;28;20480;-69
2022/11/18 08:56:33;;;;;;;16.70;8.02;;;31.90;99.90;;;;;;5092487;28;20019;-68
2022/11/18 08:58:59;;;;;;;17.77;8.52;;;31.90;99.90;;;;;;5095459;28;20051;-70
2022/11/18 09:01:26;;;;;;;18.90;7.35;;;31.90;99.90;;;;;;5095426;28;20111;-70
2022/11/18 09:03:52;;;;;;;20.67;12.68;;;31.90;99.90;;;;;;5096173;28;20055;-69
2022/11/18 09:06:21;;;;;;;23.35;13.18;;;32.00;99.90;;;;;;5096073;28;20440;-70
2022/11/18 09:08:48;;;;;;;19.25;10.10;;;32.00;99.90;;;;;;5095917;28;20099;-69
2022/11/18 09:11:20;;;;;;;21.45;11.63;;;31.90;99.90;;;;;;5095939;28;20016;-69
2022/11/18 09:13:46;;;;;;;;;;;31.90;99.90;;;;;;5096339;28;20093;-70
2022/11/18 09:16:13;;;;;;;44.58;33.35;;;31.90;99.90;;;;;;5096090;28;19904;-71
2022/11/18 09:18:39;;;;;;;34.72;21.75;;;31.90;99.90;;;;;;5095860;28;20048;-70
2022/11/18 09:21:08;;;;;;;24.55;16.77;;;31.80;99.90;;;;;;5095623;28;20427;-69
2022/11/18 09:23:36;;;;;;;32.28;21.35;;;31.70;99.90;;;;;;5095579;28;20388;-68
2022/11/18 09:26:05;;;;;;;25.80;13.50;;;31.70;99.90;;;;;;5095454;28;20024;-69
2022/11/18 09:28:32;;;;;;;25.45;13.13;;;31.70;99.90;;;;;;5095762;28;20496;-69
2022/11/18 09:31:04;;;;;;;32.60;16.30;;;31.70;99.90;;;;;;5095647;28;20027;-71
2022/11/18 09:33:31;;;;;;;30.08;18.90;;;31.70;99.90;;;;;;5095405;28;20061;-69
2022/11/18 09:35:57;;;;;;;24.75;14.93;;;31.70;99.90;;;;;;5093969;28;20023;-69
2022/11/18 09:38:24;;;;;;;21.13;15.35;;;31.70;99.90;;;;;;5094204;28;20526;-70
2022/11/18 09:40:54;;;;;;;28.40;16.35;;;31.70;99.90;;;;;;5094166;28;20055;-71
2022/11/18 09:43:29;;;;;;;24.88;16.23;;;31.60;99.90;;;;;;5092397;28;20101;-70
2022/11/18 09:46:15;;;;;;;25.15;14.85;;;31.70;99.90;;;;;;5093628;28;20047;-70
2022/11/18 09:51:12;;;;;;;28.27;13.18;;;31.60;99.90;;;;;;5093946;28;20016;-70
2022/11/18 09:53:43;;;;;;;38.63;21.92;;;31.60;99.90;;;;;;5093846;28;20047;-69
2022/11/18 09:56:13;;;;;;;36.47;20.60;;;31.60;99.90;;;;;;5093993;28;20012;-70
2022/11/18 09:58:40;;;;;;;25.83;15.13;;;31.50;99.90;;;;;;5094367;28;20496;-70
2022/11/18 10:01:13;;;;;;;26.63;13.90;;;31.50;99.90;;;;;;5094300;28;20032;-70
2022/11/18 10:03:41;;;;;;;39.22;19.50;;;31.50;99.90;;;;;;5091337;28;20024;-70
2022/11/18 10:06:09;;;;;;;36.13;19.25;;;31.40;99.90;;;;;;5093935;28;20024;-69
2022/11/18 10:08:42;;;;;;;35.72;18.33;;;31.40;99.90;;;;;;5093781;28;20062;-69
2022/11/18 10:11:10;;;;;;;46.97;21.65;;;31.40;99.90;;;;;;5091972;28;20031;-70
2022/11/18 10:13:37;;;;;;;40.95;19.02;;;31.40;99.90;;;;;;5093360;28;20413;-69
2022/11/18 10:16:19;;;;;;;38.92;20.02;;;31.30;99.90;;;;;;5093429;28;20028;-68
2022/11/18 10:18:50;;;;;;;69.37;28.87;;;31.40;99.90;;;;;;5093246;28;20032;-69
2022/11/18 10:21:22;;;;;;;61.28;28.15;;;31.30;99.90;;;;;;5093352;28;20236;-70
2022/11/18 10:24:13;;;;;;;75.25;38.22;;;31.40;99.90;;;;;;5093414;28;20149;-69
2022/11/18 10:26:41;;;;;;;57.97;27.33;;;31.40;99.90;;;;;;5087352;28;20553;-65
2022/11/18 10:29:09;;;;;;;94.28;50.22;;;31.40;99.90;;;;;;5093873;28;20043;-64
2022/11/18 10:31:51;;;;;;;64.10;33.25;;;31.30;99.90;;;;;;5094245;28;20067;-67
2022/11/18 10:34:19;;;;;;;72.35;33.75;;;31.20;99.90;;;;;;5090538;28;20028;-67
2022/11/18 10:36:59;;;;;;;57.42;29.20;;;31.20;99.90;;;;;;5093889;28;20028;-68
2022/11/18 10:39:26;;;;;;;63.35;29.25;;;31.20;99.90;;;;;;5094206;28;20031;-70
2022/11/18 10:41:59;;;;;;;67.45;31.63;;;31.20;99.90;;;;;;5094339;28;20024;-68
2022/11/18 10:44:28;;;;;;;82.63;42.97;;;31.10;99.90;;;;;;5094292;28;20392;-68
2022/11/18 10:46:55;;;;;;;103.32;64.60;;;31.00;99.90;;;;;;5093342;28;20020;-66
2022/11/18 10:49:22;;;;;;;92.38;59.10;;;31.00;99.90;;;;;;5093570;28;20381;-64
2022/11/18 10:52:03;;;;;;;87.63;51.55;;;31.00;99.90;;;;;;5093685;28;20016;-67
2022/11/18 10:54:30;;;;;;;96.60;47.40;;;31.00;99.90;;;;;;5092522;28;20028;-66
2022/11/18 10:57:03;;;;;;;103.03;47.88;;;30.90;99.90;;;;;;5086979;28;20042;-67
2022/11/18 10:59:32;;;;;;;146.18;70.57;;;30.90;99.90;;;;;;5091724;28;20020;-64
2022/11/18 11:01:58;;;;;;;212.05;105.50;;;30.80;99.90;;;;;;5090942;28;20031;-66
2022/11/18 11:04:28;;;;;;;145.05;72.07;;;30.80;99.90;;;;;;5093077;28;20323;-66
2022/11/18 11:06:57;;;;;;;152.75;76.70;;;30.80;99.90;;;;;;5092645;28;20035;-66
2022/11/18 11:09:28;;;;;;;104.97;49.63;;;30.80;99.90;;;;;;5092821;28;20020;-66
2022/11/18 11:11:57;;;;;;;108.53;48.83;;;30.70;99.90;;;;;;5092355;28;20024;-65
2022/11/18 11:14:29;;;;;;;109.30;48.72;;;30.70;99.90;;;;;;5093020;28;20019;-66
2022/11/18 11:17:19;;;;;;;120.47;49.97;;;30.60;99.90;;;;;;5092669;28;20384;-65
2022/11/18 11:20:06;;;;;;;115.00;51.28;;;30.60;99.90;;;;;;5093164;28;20053;-66
2022/11/18 11:22:33;;;;;;;121.53;53.13;;;30.60;99.90;;;;;;5082661;28;20036;-66
2022/11/18 11:24:59;;;;;;;136.20;57.67;;;30.60;99.90;;;;;;5093027;28;20028;-66
2022/11/18 11:27:31;;;;;;;150.60;56.10;;;30.60;99.90;;;;;;5091106;28;20024;-66
2022/11/18 11:30:02;;;;;;;163.57;91.00;;;30.50;99.90;;;;;;5092427;28;20024;-67
2022/11/18 11:32:33;;;;;;;261.75;187.55;;;30.50;99.90;;;;;;5094078;28;20078;-67
2022/11/18 11:35:00;;;;;;;255.40;178.85;;;30.50;99.90;;;;;;5094464;28;20358;-67
2022/11/18 11:37:31;;;;;;;209.45;137.40;;;30.40;99.90;;;;;;5093797;28;20365;-66
2022/11/18 11:40:19;;;;;;;169.75;97.90;;;30.40;99.90;;;;;;5094305;28;20061;-68
2022/11/18 11:42:57;;;;;;;152.60;76.50;;;30.40;99.90;;;;;;5093193;28;20343;-66
2022/11/18 11:45:31;;;;;;;151.80;64.70;;;30.30;99.90;;;;;;5092916;28;20028;-68
2022/11/18 11:48:02;;;;;;;121.20;60.92;;;30.30;99.90;;;;;;5091913;28;20028;-66
2022/11/18 11:50:52;;;;;;;120.22;55.90;;;30.30;99.90;;;;;;5089296;28;20028;-66
2022/11/18 11:53:41;;;;;;;135.38;70.30;;;30.30;99.90;;;;;;5097588;28;20384;-66
2022/11/18 11:56:22;;;;;;;158.57;77.00;;;30.30;99.90;;;;;;5084151;28;20036;-64
2022/11/18 11:59:11;;;;;;;171.40;87.70;;;30.30;99.90;;;;;;5093976;28;20354;-66
2022/11/18 12:01:41;;;;;;;184.65;103.93;;;30.20;99.90;;;;;;5093755;28;20036;-64
2022/11/18 12:04:10;;;;;;;191.40;105.03;;;30.20;99.90;;;;;;5095098;28;20012;-65
2022/11/18 12:06:37;;;;;;;192.15;118.00;;;30.20;99.90;;;;;;5096187;28;20024;-64
2022/11/18 12:09:15;;;;;;;104.03;55.20;;;30.20;99.90;;;;;;5096209;28;20031;-66
2022/11/18 12:11:54;;;;;;;105.85;48.38;;;30.20;99.90;;;;;;5094405;28;20024;-65
2022/11/18 12:14:28;;;;;;;114.50;51.13;;;30.20;99.90;;;;;;5094007;28;20185;-66
2022/11/18 12:16:59;;;;;;;135.45;62.63;;;30.20;99.90;;;;;;5096005;28;20460;-63
2022/11/18 12:19:26;;;;;;;145.85;67.35;;;30.10;99.90;;;;;;5096234;28;20465;-64
2022/11/18 12:21:56;;;;;;;136.30;65.68;;;30.10;99.90;;;;;;5096079;28;20031;-66
2022/11/18 12:24:30;;;;;;;132.10;65.40;;;30.00;99.90;;;;;;5096284;28;20025;-65
2022/11/18 12:26:59;;;;;;;126.80;59.33;;;30.00;99.90;;;;;;5093491;28;20626;-67
2022/11/18 12:29:31;;;;;;;124.45;56.85;;;30.00;99.90;;;;;;5095954;28;20519;-66
2022/11/18 12:32:00;;;;;;;97.13;51.30;;;29.90;99.90;;;;;;5090068;28;20438;-64
2022/11/18 12:34:34;;;;;;;105.00;52.33;;;29.70;99.90;;;;;;5095325;28;20024;-66
2022/11/18 12:37:21;;;;;;;88.35;41.78;;;29.50;99.90;;;;;;5095951;28;20017;-66
2022/11/18 12:39:57;;;;;;;66.05;33.30;;;29.40;99.90;;;;;;5093175;28;20028;-69
2022/11/18 12:45:20;;;;;;;76.70;33.00;;;29.30;99.90;;;;;;5095555;28;20020;-68
2022/11/18 12:47:46;;;;;;;63.00;31.55;;;29.50;99.90;;;;;;5095152;28;20023;-68
2022/11/18 12:50:14;;;;;;;76.03;38.17;;;29.50;99.90;;;;;;5095575;28;20020;-68
2022/11/18 12:52:41;;;;;;;89.88;45.15;;;29.60;99.90;;;;;;5095701;28;20028;-66
2022/11/18 12:55:16;;;;;;;73.13;35.63;;;29.60;99.90;;;;;;5092724;28;20025;-66
2022/11/18 12:57:43;;;;;;;75.55;34.95;;;29.60;99.90;;;;;;5095371;28;20024;-65
2022/11/18 13:00:14;;;;;;;60.22;30.63;;;29.60;99.90;;;;;;5093952;28;20020;-67
2022/11/18 13:02:54;;;;;;;70.75;32.80;;;29.50;99.90;;;;;;5091472;28;20066;-66
2022/11/18 13:05:23;;;;;;;65.47;29.52;;;29.50;99.90;;;;;;5075783;28;20544;-68
2022/11/18 13:10:28;;;;;;;71.53;30.60;;;29.50;99.90;;;;;;5081858;28;20499;-68